Eiwamaru — JG5742 — position and weather

sailwx.info

Track history (hours):
 
Tides and Currents Weather Stations Pressure Air Temp Water Temp Dewpoint Dewpoint Depression Visibility Wind Speed Wind Dir Waves Ship Positions

Eiwamaru

Last reported at 2014-Jul-23 12:33 UTC. Time now 2014-Jul-23 13:32 UTC.
Position N 35°29' E 139°48'.

Length 80 m; draft 4 m.

Type: Tanker. MMSI: 431101045.

Date/timePositionNaut miles runAvg speedWind from/ knotsBaromVisibWave heightAir tempDewpointWater temp
2014-Jul-23 12:33N 35°29' E 139°48'0 0.4
2014-Jul-23 11:33N 35°28' E 139°48'1211.8
2014-Jul-23 10:33N 35°16' E 139°46'1312.9
2014-Jul-23 09:34N 35°04' E 139°43'3314.4
2014-Jul-23 07:18N 34°45' E 139°11'29 9.1
2014-Jul-23 04:08N 34°50' E 138°37'13 2.7
2014-Jul-22 23:21N 35°02' E 138°30'181 5.0
2014-Jul-21 11:15N 34°09' E 134°60'1012.7
2014-Jul-21 10:27N 34°19' E 134°59'1011.3
2014-Jul-21 09:32N 34°26' E 135°08'1212.4
2014-Jul-21 08:33N 34°32' E 135°21'4 4.2
2014-Jul-21 07:33N 34°33' E 135°26'0 0.0
2014-Jul-21 06:34N 34°33' E 135°26'0 0.0
2014-Jul-21 05:33N 34°33' E 135°26'0 0.0
2014-Jul-21 04:34N 34°33' E 135°26'0 0.1
2014-Jul-21 03:33N 34°33' E 135°26'9 9.1
2014-Jul-21 02:34N 34°31' E 135°15'1313.0
2014-Jul-21 01:34N 34°22' E 135°04'1110.8
2014-Jul-21 00:32N 34°11' E 134°60'210 5.2
2014-Jul-19 08:23N 34°51' E 139°10'1311.1
2014-Jul-19 07:15N 34°57' E 139°24'810.8
2014-Jul-19 06:33N 35°01' E 139°32'1212.4
2014-Jul-19 05:34N 35°08' E 139°43'1211.7
2014-Jul-19 04:33N 35°20' E 139°42'1111.0
2014-Jul-19 03:34N 35°31' E 139°47'0 0.2
2014-Jul-19 02:34N 35°31' E 139°46'0 0.0
2014-Jul-19 01:33N 35°31' E 139°46'0 0.0
2014-Jul-19 00:33N 35°31' E 139°46'1 0.6
2014-Jul-18 23:33N 35°30' E 139°46'0 0.0
2014-Jul-18 22:34N 35°30' E 139°46'0 0.0
2014-Jul-18 21:33N 35°30' E 139°46'0 0.0
2014-Jul-18 20:33N 35°30' E 139°46'0 0.0
2014-Jul-18 19:33N 35°30' E 139°46'0 0.0
2014-Jul-18 18:33N 35°30' E 139°46'0 0.0
2014-Jul-18 17:33N 35°30' E 139°46'0 0.0
2014-Jul-18 16:33N 35°30' E 139°46'0 0.0
2014-Jul-18 15:33N 35°30' E 139°46'0 0.0
2014-Jul-18 14:30N 35°30' E 139°46'0 0.0
2014-Jul-18 13:33N 35°30' E 139°46'0 0.0
2014-Jul-18 12:33N 35°30' E 139°46'0 0.0
2014-Jul-18 11:33N 35°30' E 139°46'0 0.0
2014-Jul-18 10:33N 35°30' E 139°46'0 0.0
2014-Jul-18 09:33N 35°30' E 139°46'0 0.0
2014-Jul-18 08:33N 35°30' E 139°46'0 0.0
2014-Jul-18 07:33N 35°30' E 139°46'0 0.0
2014-Jul-18 06:27N 35°30' E 139°46'0 0.0
2014-Jul-18 05:33N 35°30' E 139°46'0 0.2
2014-Jul-18 04:33N 35°30' E 139°46'1010.0
2014-Jul-18 03:33N 35°20' E 139°45'1211.5
2014-Jul-18 02:33N 35°09' E 139°47'1212.4
2014-Jul-18 01:33N 34°57' E 139°44'2211.0
2014-Jul-17 23:33N 35°00' E 140°11'73 2.2
2014-Jul-16 14:23N 36°00' E 141°02'1012.2
2014-Jul-16 13:32N 35°50' E 141°01'2812.7
2014-Jul-16 11:23N 35°26' E 140°43'1213.8
2014-Jul-16 10:30N 35°17' E 140°33'1913.7
2014-Jul-16 09:06N 35°03' E 140°17'813.5
2014-Jul-16 08:32N 34°60' E 140°09'1513.2
2014-Jul-16 07:24N 34°51' E 139°53'1011.3
2014-Jul-16 06:33N 34°57' E 139°44'1212.4
2014-Jul-16 05:33N 35°09' E 139°46'1212.1
2014-Jul-16 04:33N 35°21' E 139°42'1010.2
2014-Jul-16 03:33N 35°31' E 139°46'0 0.1
2014-Jul-16 02:33N 35°31' E 139°46'0 0.0
2014-Jul-16 01:33N 35°31' E 139°46'0 0.0
2014-Jul-16 00:33N 35°31' E 139°46'2 2.4
2014-Jul-15 23:33N 35°29' E 139°48'0 0.2
2014-Jul-15 22:33N 35°29' E 139°48'1111.0
2014-Jul-15 21:33N 35°18' E 139°44'1212.2
2014-Jul-15 20:33N 35°06' E 139°45'1413.3
2014-Jul-15 19:31N 34°57' E 139°32'1814.6
2014-Jul-15 18:19N 34°47' E 139°15'  
Track history (hours):
 
Tides and Currents Weather Stations Pressure Air Temp Water Temp Dewpoint Dewpoint Depression Visibility Wind Speed Wind Dir Waves Ship Positions

Eiwamaru

Last reported at 2014-Jul-23 12:33 UTC. Time now 2014-Jul-23 13:32 UTC.
Position N 35°29' E 139°48'.

Length 80 m; draft 4 m.

Type: Tanker. MMSI: 431101045.

Date/timePositionNaut miles runAvg speedWind from/ knotsBaromVisibWave heightAir tempDewpointWater temp
2014-Jul-23 12:33N 35°29' E 139°48'0 0.4
2014-Jul-23 11:33N 35°28' E 139°48'1211.8
2014-Jul-23 10:33N 35°16' E 139°46'1312.9
2014-Jul-23 09:34N 35°04' E 139°43'3314.4
2014-Jul-23 07:18N 34°45' E 139°11'29 9.1
2014-Jul-23 04:08N 34°50' E 138°37'13 2.7
2014-Jul-22 23:21N 35°02' E 138°30'181 5.0
2014-Jul-21 11:15N 34°09' E 134°60'1012.7
2014-Jul-21 10:27N 34°19' E 134°59'1011.3
2014-Jul-21 09:32N 34°26' E 135°08'1212.4
2014-Jul-21 08:33N 34°32' E 135°21'4 4.2
2014-Jul-21 07:33N 34°33' E 135°26'0 0.0
2014-Jul-21 06:34N 34°33' E 135°26'0 0.0
2014-Jul-21 05:33N 34°33' E 135°26'0 0.0
2014-Jul-21 04:34N 34°33' E 135°26'0 0.1
2014-Jul-21 03:33N 34°33' E 135°26'9 9.1
2014-Jul-21 02:34N 34°31' E 135°15'1313.0
2014-Jul-21 01:34N 34°22' E 135°04'1110.8
2014-Jul-21 00:32N 34°11' E 134°60'210 5.2
2014-Jul-19 08:23N 34°51' E 139°10'1311.1
2014-Jul-19 07:15N 34°57' E 139°24'810.8
2014-Jul-19 06:33N 35°01' E 139°32'1212.4
2014-Jul-19 05:34N 35°08' E 139°43'1211.7
2014-Jul-19 04:33N 35°20' E 139°42'1111.0
2014-Jul-19 03:34N 35°31' E 139°47'0 0.2
2014-Jul-19 02:34N 35°31' E 139°46'0 0.0
2014-Jul-19 01:33N 35°31' E 139°46'0 0.0
2014-Jul-19 00:33N 35°31' E 139°46'1 0.6
2014-Jul-18 23:33N 35°30' E 139°46'0 0.0
2014-Jul-18 22:34N 35°30' E 139°46'0 0.0
2014-Jul-18 21:33N 35°30' E 139°46'0 0.0
2014-Jul-18 20:33N 35°30' E 139°46'0 0.0
2014-Jul-18 19:33N 35°30' E 139°46'0 0.0
2014-Jul-18 18:33N 35°30' E 139°46'0 0.0
2014-Jul-18 17:33N 35°30' E 139°46'0 0.0
2014-Jul-18 16:33N 35°30' E 139°46'0 0.0
2014-Jul-18 15:33N 35°30' E 139°46'0 0.0
2014-Jul-18 14:30N 35°30' E 139°46'0 0.0
2014-Jul-18 13:33N 35°30' E 139°46'0 0.0
2014-Jul-18 12:33N 35°30' E 139°46'0 0.0
2014-Jul-18 11:33N 35°30' E 139°46'0 0.0
2014-Jul-18 10:33N 35°30' E 139°46'0 0.0
2014-Jul-18 09:33N 35°30' E 139°46'0 0.0
2014-Jul-18 08:33N 35°30' E 139°46'0 0.0
2014-Jul-18 07:33N 35°30' E 139°46'0 0.0
2014-Jul-18 06:27N 35°30' E 139°46'0 0.0
2014-Jul-18 05:33N 35°30' E 139°46'0 0.2
2014-Jul-18 04:33N 35°30' E 139°46'1010.0
2014-Jul-18 03:33N 35°20' E 139°45'1211.5
2014-Jul-18 02:33N 35°09' E 139°47'1212.4
2014-Jul-18 01:33N 34°57' E 139°44'2211.0
2014-Jul-17 23:33N 35°00' E 140°11'73 2.2
2014-Jul-16 14:23N 36°00' E 141°02'1012.2
2014-Jul-16 13:32N 35°50' E 141°01'2812.7
2014-Jul-16 11:23N 35°26' E 140°43'1213.8
2014-Jul-16 10:30N 35°17' E 140°33'1913.7
2014-Jul-16 09:06N 35°03' E 140°17'813.5
2014-Jul-16 08:32N 34°60' E 140°09'1513.2
2014-Jul-16 07:24N 34°51' E 139°53'1011.3
2014-Jul-16 06:33N 34°57' E 139°44'1212.4
2014-Jul-16 05:33N 35°09' E 139°46'1212.1
2014-Jul-16 04:33N 35°21' E 139°42'1010.2
2014-Jul-16 03:33N 35°31' E 139°46'0 0.1
2014-Jul-16 02:33N 35°31' E 139°46'0 0.0
2014-Jul-16 01:33N 35°31' E 139°46'0 0.0
2014-Jul-16 00:33N 35°31' E 139°46'2 2.4
2014-Jul-15 23:33N 35°29' E 139°48'0 0.2
2014-Jul-15 22:33N 35°29' E 139°48'1111.0
2014-Jul-15 21:33N 35°18' E 139°44'1212.2
2014-Jul-15 20:33N 35°06' E 139°45'1413.3
2014-Jul-15 19:31N 34°57' E 139°32'1814.6
2014-Jul-15 18:19N 34°47' E 139°15'  

Dump ship's entire track history